Time;durP1;ratioP1;P1;durP2;ratioP2;P2;SDS_P1;SDS_P2;PMS_P1;PMS_P2;Temp;Humidity;BMP_temperature;BMP_pressure;BME280_temperature;BME280_humidity;BME280_pressure;Samples;Min_cycle;Max_cycle;Signal;HPM_P1;HPM_P2
2023/07/12 00:01:29;;;;;;;6.25;4.13;;;;;;;27.64;43.57;101118.25;21074754;28;20541;-71
2023/07/12 00:11:30;;;;;;;13.40;4.05;;;;;;;27.52;43.11;101101.97;21074706;28;20105;-71
2023/07/12 00:21:34;;;;;;;7.15;4.38;;;;;;;27.63;43.22;101111.81;21064773;28;20433;-71
2023/07/12 00:31:36;;;;;;;5.55;3.78;;;;;;;27.58;43.31;101120.34;21076950;28;20467;-71
2023/07/12 00:41:56;;;;;;;7.68;4.25;;;;;;;27.60;42.79;101120.88;21092436;28;20391;-71
2023/07/12 00:52:00;;;;;;;5.72;4.30;;;;;;;27.59;42.32;101136.09;21102936;28;20036;-73
2023/07/12 01:02:03;;;;;;;4.70;3.63;;;;;;;27.59;42.52;101141.72;21102192;28;20425;-71
2023/07/12 01:12:08;;;;;;;4.43;3.90;;;;;;;27.50;42.45;101135.22;21102431;28;20031;-73
2023/07/12 01:22:09;;;;;;;6.47;4.28;;;;;;;27.55;42.21;101166.00;21102424;28;20090;-71
2023/07/12 01:32:11;;;;;;;7.32;4.10;;;;;;;27.52;42.16;101172.25;21102064;28;20421;-72
2023/07/12 01:42:21;;;;;;;5.88;4.88;;;;;;;27.54;42.33;101178.41;21100716;28;20024;-72
2023/07/12 01:52:23;;;;;;;5.43;4.45;;;;;;;27.54;42.12;101176.41;21093258;28;20070;-71
2023/07/12 02:02:28;;;;;;;6.30;4.20;;;;;;;27.48;42.00;101177.66;21065865;28;20045;-71
2023/07/12 02:12:29;;;;;;;4.85;4.35;;;;;;;27.52;41.85;101198.38;21002714;28;20446;-72
2023/07/12 02:22:33;;;;;;;4.53;4.10;;;;;;;27.54;41.55;101206.50;21084522;28;20506;-70
2023/07/12 02:32:34;;;;;;;4.75;4.28;;;;;;;27.19;41.57;101154.81;21084024;28;20040;-71
2023/07/12 02:42:36;;;;;;;5.85;4.30;;;;;;;27.45;41.11;101209.25;21083820;28;20044;-70
2023/07/12 02:52:38;;;;;;;4.93;4.43;;;;;;;27.41;40.91;101216.66;21082430;28;20109;-72
2023/07/12 03:02:40;;;;;;;4.65;4.25;;;;;;;27.41;41.04;101218.63;21081239;28;20398;-71
2023/07/12 03:12:44;;;;;;;3.92;3.53;;;;;;;27.44;41.49;101229.22;21081336;28;20461;-71
2023/07/12 03:22:48;;;;;;;4.75;4.20;;;;;;;27.42;41.42;101221.13;21080755;28;20036;-71
2023/07/12 03:32:53;;;;;;;4.90;4.43;;;;;;;27.46;40.85;101232.56;21078403;28;20039;-71
2023/07/12 03:42:55;;;;;;;5.70;4.47;;;;;;;27.36;41.08;101214.78;21079994;28;20548;-71
2023/07/12 03:52:56;;;;;;;7.20;4.53;;;;;;;27.31;41.20;101202.84;21079297;28;20048;-70
2023/07/12 04:02:57;;;;;;;5.22;4.53;;;;;;;27.34;40.98;101205.00;21078620;28;20032;-71
2023/07/12 04:12:59;;;;;;;5.78;4.78;;;;;;;27.40;41.10;101222.56;21078201;28;20491;-71
2023/07/12 04:23:00;;;;;;;5.65;5.10;;;;;;;27.41;41.01;101216.66;21079077;28;20040;-71
2023/07/12 04:33:05;;;;;;;5.03;4.53;;;;;;;27.41;40.99;101218.63;21077225;28;20105;-71
2023/07/12 04:43:06;;;;;;;5.22;4.72;;;;;;;27.32;41.20;101216.56;21076003;28;20040;-71
2023/07/12 04:53:07;;;;;;;5.43;4.93;;;;;;;27.33;40.30;101215.41;21074972;28;20036;-70
2023/07/12 05:03:09;;;;;;;5.97;5.35;;;;;;;27.31;40.98;101212.13;21072424;28;20051;-70
2023/07/12 05:13:11;;;;;;;7.05;5.18;;;;;;;27.27;40.88;101207.44;21075291;28;20097;-72
2023/07/12 05:23:12;;;;;;;4.80;4.40;;;;;;;27.32;41.25;101198.91;21075648;28;20028;-71
2023/07/12 05:33:14;;;;;;;6.13;4.70;;;;;;;27.30;40.90;101196.38;21090451;28;20043;-71
2023/07/12 05:43:23;;;;;;;4.72;4.32;;;;;;;27.25;41.00;101187.25;21089648;28;20051;-71
2023/07/12 05:53:24;;;;;;;5.28;4.78;;;;;;;27.29;41.23;101200.34;21088782;28;20040;-71
2023/07/12 06:03:29;;;;;;;5.65;4.57;;;;;;;27.28;40.75;101197.88;21088067;28;20090;-70
2023/07/12 06:13:33;;;;;;;5.78;5.10;;;;;;;27.13;40.62;101173.78;21086775;28;20106;-71
2023/07/12 06:23:34;;;;;;;5.00;4.50;;;;;;;27.19;40.72;101199.78;21085720;28;20089;-70
2023/07/12 06:33:38;;;;;;;5.20;4.70;;;;;;;27.21;40.32;101209.53;21085443;28;20081;-69
2023/07/12 06:43:39;;;;;;;5.00;4.50;;;;;;;27.21;40.55;101205.88;21084355;28;20475;-71
2023/07/12 06:53:41;;;;;;;4.72;4.32;;;;;;;27.21;40.55;101208.69;21083794;28;20395;-71
2023/07/12 07:03:48;;;;;;;4.68;4.28;;;;;;;27.14;40.17;101197.91;21083013;28;20418;-71
2023/07/12 07:13:50;;;;;;;4.55;4.15;;;;;;;27.04;40.31;101184.09;21082299;28;20552;-71
2023/07/12 07:23:52;;;;;;;5.50;4.40;;;;;;;27.13;40.45;101212.28;21080741;28;20040;-71
2023/07/12 07:34:01;;;;;;;5.25;4.70;;;;;;;27.08;39.91;101199.16;21079609;28;20078;-71
2023/07/12 07:44:03;;;;;;;4.55;4.10;;;;;;;27.10;40.03;101213.75;21079354;28;20101;-71
2023/07/12 07:54:04;;;;;;;4.55;4.15;;;;;;;27.13;39.95;101229.97;21077208;28;20070;-71
2023/07/12 08:04:09;;;;;;;4.68;4.20;;;;;;;26.98;39.88;101208.63;21078759;28;20044;-71
2023/07/12 08:14:10;;;;;;;4.78;4.38;;;;;;;26.99;39.78;101207.50;21077911;28;20445;-70
2023/07/12 08:24:11;;;;;;;4.28;3.90;;;;;;;27.07;39.67;101220.78;21076546;28;20543;-70
2023/07/12 08:34:15;;;;;;;4.00;3.58;;;;;;;27.04;39.78;101221.44;21075824;28;20041;-70
2023/07/12 08:44:17;;;;;;;4.18;3.78;;;;;;;26.89;39.51;101206.88;21075982;28;20055;-69
2023/07/12 08:54:24;;;;;;;4.18;3.78;;;;;;;26.99;39.41;101232.78;21074261;28;20049;-71
2023/07/12 09:04:31;;;;;;;4.07;3.75;;;;;;;26.91;39.03;101227.06;21087994;28;20056;-71
2023/07/12 09:14:36;;;;;;;4.63;4.18;;;;;;;26.84;39.39;101221.88;21090755;28;20097;-71
2023/07/12 09:24:43;;;;;;;5.70;4.00;;;;;;;26.95;39.56;101251.41;21090730;28;20086;-70
2023/07/12 09:34:47;;;;;;;4.75;4.03;;;;;;;26.95;39.39;101244.97;21089640;28;20036;-71
2023/07/12 09:44:48;;;;;;;4.32;3.92;;;;;;;26.86;39.49;101248.50;21088425;28;20047;-71
2023/07/12 09:54:56;;;;;;;4.03;3.63;;;;;;;26.89;39.65;101268.66;21088300;28;20052;-71
2023/07/12 10:05:04;;;;;;;4.25;3.85;;;;;;;26.91;39.44;101274.81;21087601;28;20032;-71
2023/07/12 10:15:11;;;;;;;4.25;3.85;;;;;;;26.88;39.33;101281.06;21084599;28;20040;-69
2023/07/12 10:25:24;;;;;;;;;;;;;;;26.83;39.55;101282.81;21085482;28;20070;-70
2023/07/12 10:35:42;;;;;;;4.30;3.90;;;;;;;26.85;39.15;101285.34;21083188;28;19970;-69
2023/07/12 10:45:45;;;;;;;3.85;3.50;;;;;;;26.83;38.93;101288.44;21000603;28;20117;-70
2023/07/12 10:56:15;;;;;;;4.32;3.92;;;;;;;26.73;39.17;101293.44;20999288;28;20041;-68
2023/07/12 11:06:29;;;;;;;4.28;3.88;;;;;;;26.66;39.24;101305.06;21053004;28;20399;-72
2023/07/12 11:16:32;;;;;;;3.67;3.38;;;;;;;26.83;39.40;101332.53;21081946;28;20701;-71
2023/07/12 11:26:50;;;;;;;3.80;3.50;;;;;;;26.79;39.51;101329.50;21079231;28;20062;-71
2023/07/12 11:36:56;;;;;;;4.10;3.70;;;;;;;26.77;39.39;101336.59;21080503;28;20125;-70
2023/07/12 11:46:58;;;;;;;3.92;3.53;;;;;;;26.79;39.38;101343.53;21079419;28;20181;-70
2023/07/12 11:57:01;;;;;;;3.50;3.20;;;;;;;26.82;39.49;101348.56;21076446;28;20048;-71
2023/07/12 12:07:19;;;;;;;3.65;3.33;;;;;;;26.69;39.30;101332.53;21077400;28;20077;-71
2023/07/12 12:17:31;;;;;;;3.75;3.45;;;;;;;26.80;39.56;101356.47;21000104;28;20466;-70
2023/07/12 12:27:37;;;;;;;3.63;3.33;;;;;;;26.78;39.49;101352.28;20991645;28;20032;-72
2023/07/12 12:37:52;;;;;;;3.60;3.30;;;;;;;26.82;39.43;101361.75;21049111;28;20032;-70
2023/07/12 12:47:54;;;;;;;3.70;3.40;;;;;;;26.73;39.82;101342.00;21075703;28;20392;-70
2023/07/12 12:57:58;;;;;;;3.50;3.20;;;;;;;26.84;39.86;101357.47;21074161;28;20047;-72
2023/07/12 13:08:04;;;;;;;4.10;3.70;;;;;;;26.81;39.48;101341.28;21073813;28;20105;-72
2023/07/12 13:18:05;;;;;;;3.85;3.35;;;;;;;26.81;39.76;101341.28;21073120;28;20125;-73
2023/07/12 13:28:13;;;;;;;4.28;3.67;;;;;;;26.60;39.83;101289.47;21071635;28;20036;-72
2023/07/12 13:38:16;;;;;;;4.10;3.67;;;;;;;26.82;40.24;101331.69;21071954;28;20059;-72
2023/07/12 13:48:19;;;;;;;4.63;3.53;;;;;;;26.86;40.47;101331.91;21078926;28;20048;-72
2023/07/12 13:58:21;;;;;;;4.28;3.22;;;;;;;26.81;40.55;101321.63;21061765;28;20044;-72
2023/07/12 14:08:22;;;;;;;3.92;3.63;;;;;;;26.78;40.37;101322.25;21085217;28;20487;-72
2023/07/12 14:18:23;;;;;;;41.88;5.72;;;;;;;26.89;40.97;101341.69;21084418;28;20364;-74
2023/07/12 14:28:25;;;;;;;13.50;4.50;;;;;;;26.80;40.87;101328.38;21084347;28;20036;-72
2023/07/12 14:38:26;;;;;;;9.40;3.92;;;;;;;26.84;40.78;101320.97;21082909;28;20039;-73
2023/07/12 14:48:27;;;;;;;11.13;4.90;;;;;;;26.83;41.29;101316.50;21075436;28;20498;-73
2023/07/12 14:58:29;;;;;;;10.20;4.10;;;;;;;26.89;41.67;101319.22;21006118;28;20037;-73
2023/07/12 15:08:31;;;;;;;22.77;4.75;;;;;;;26.90;41.55;101312.47;21017946;28;20048;-73
2023/07/12 15:18:33;;;;;;;28.27;5.78;;;;;;;26.82;41.62;101292.41;20996656;28;20029;-84
2023/07/12 15:28:39;;;;;;;28.42;6.28;;;;;;;26.94;42.10;101300.31;20998603;28;20047;-75
2023/07/12 15:38:48;;;;;;;56.40;7.35;;;;;;;26.86;42.67;101304.66;21035720;28;20158;-76
2023/07/12 15:48:49;;;;;;;162.43;15.13;;;;;;;27.01;42.95;101320.34;20995629;28;20070;-74
2023/07/12 15:58:51;;;;;;;155.45;16.88;;;;;;;27.13;43.33;101319.88;21012137;28;20044;-75
2023/07/12 16:08:52;;;;;;;117.38;16.70;;;;;;;27.13;43.49;101300.19;21029298;28;20044;-76
2023/07/12 16:18:54;;;;;;;102.78;13.23;;;;;;;27.10;43.16;101298.84;21069558;28;20089;-75
2023/07/12 16:28:55;;;;;;;71.47;12.07;;;;;;;27.09;42.34;101291.56;21075275;28;20391;-74
2023/07/12 16:38:58;;;;;;;54.33;11.00;;;;;;;27.00;42.01;101270.94;21075366;28;20020;-76
2023/07/12 16:49:04;;;;;;;46.45;10.30;;;;;;;27.08;41.89;101269.38;21073875;28;20040;-76
2023/07/12 16:59:09;;;;;;;53.13;11.53;;;;;;;27.17;42.33;101253.47;21076059;28;20040;-74
2023/07/12 17:09:19;;;;;;;66.22;11.35;;;;;;;27.07;41.95;101232.00;21075294;28;20036;-72
2023/07/12 17:19:21;;;;;;;63.17;12.18;;;;;;;27.18;42.91;101221.41;21074285;28;20089;-77
2023/07/12 17:29:23;;;;;;;45.17;10.90;;;;;;;27.08;42.13;101216.88;21090193;28;20543;-75
2023/07/12 17:39:26;;;;;;;43.85;9.43;;;;;;;26.85;41.72;101193.50;21088515;28;20452;-75
2023/07/12 17:49:27;;;;;;;57.33;10.95;;;;;;;26.84;41.39;101200.25;21089273;28;20501;-75
2023/07/12 17:59:29;;;;;;;66.20;11.18;;;;;;;26.29;41.50;101102.06;21088173;28;20036;-75
2023/07/12 18:09:30;;;;;;;81.35;12.77;;;;;;;26.73;41.71;101187.59;21086600;28;20487;-75
2023/07/12 18:19:32;;;;;;;67.57;12.45;;;;;;;26.71;41.68;101192.69;21085881;28;20036;-75
2023/07/12 18:29:33;;;;;;;78.05;13.13;;;;;;;26.69;41.79;101189.34;21084498;28;20040;-75
2023/07/12 18:39:37;;;;;;;115.85;16.02;;;;;;;26.49;41.93;101158.94;21084873;28;20032;-75
2023/07/12 18:49:39;;;;;;;95.78;17.30;;;;;;;26.40;42.37;101170.03;21083453;28;20475;-76
2023/07/12 18:59:45;;;;;;;123.18;17.30;;;;;;;26.58;42.17;101213.19;21081127;28;20058;-75
2023/07/12 19:09:47;;;;;;;110.87;18.17;;;;;;;26.55;41.76;101208.19;21031441;28;20479;-75
2023/07/12 19:19:49;;;;;;;474.98;61.13;;;;;;;26.60;42.43;101225.75;21080110;28;20334;-76
2023/07/12 19:29:50;;;;;;;562.08;91.30;;;;;;;26.53;42.55;101183.25;21081098;28;20048;-73
2023/07/12 19:39:51;;;;;;;509.60;84.50;;;;;;;26.62;42.65;101169.31;21036312;28;20544;-76
2023/07/12 19:49:57;;;;;;;443.80;74.05;;;;;;;26.65;42.98;101179.91;21077386;28;20521;-73
2023/07/12 19:59:58;;;;;;;382.83;63.55;;;;;;;26.67;43.22;101180.44;21077179;28;20045;-75
2023/07/12 20:10:01;;;;;;;336.00;59.30;;;;;;;26.59;43.13;101141.88;21075106;28;20114;-73
2023/07/12 20:20:04;;;;;;;267.40;49.50;;;;;;;26.67;42.71;101168.38;21004415;28;20069;-74
2023/07/12 20:30:09;;;;;;;213.68;41.47;;;;;;;26.60;42.79;101149.16;21078522;28;20048;-73
2023/07/12 20:40:11;;;;;;;186.05;38.20;;;;;;;26.63;42.70;101153.31;21075387;28;20032;-74
2023/07/12 20:50:12;;;;;;;154.95;34.72;;;;;;;26.70;42.62;101176.97;21053650;28;20093;-73
2023/07/12 21:00:15;;;;;;;119.72;29.05;;;;;;;26.66;42.68;101167.53;21087002;28;20036;-74
2023/07/12 21:10:19;;;;;;;104.88;24.90;;;;;;;26.66;42.57;101167.53;21092259;28;20491;-74
2023/07/12 21:20:27;;;;;;;79.85;21.90;;;;;;;26.45;42.17;101135.47;21089951;28;20036;-75
2023/07/12 21:30:29;;;;;;;60.55;18.65;;;;;;;26.59;41.66;101137.09;21090994;28;20024;-74
2023/07/12 21:40:30;;;;;;;49.38;17.35;;;;;;;26.55;41.69;101132.41;21096998;28;20044;-74
2023/07/12 21:50:33;;;;;;;45.83;16.52;;;;;;;26.63;41.99;101130.84;21088046;28;20035;-75
2023/07/12 22:00:34;;;;;;;42.90;15.65;;;;;;;26.63;41.62;101134.50;21087414;28;20105;-73
2023/07/12 22:10:36;;;;;;;36.28;14.93;;;;;;;26.48;41.73;101132.00;21087952;28;20032;-76
2023/07/12 22:20:40;;;;;;;28.27;13.35;;;;;;;26.57;41.62;101139.41;21092494;28;20056;-75
2023/07/12 22:30:41;;;;;;;29.00;13.57;;;;;;;26.61;41.78;101139.56;21087616;28;20040;-75
2023/07/12 22:40:43;;;;;;;34.60;13.63;;;;;;;26.49;42.01;101126.09;21086421;28;20470;-74
2023/07/12 22:50:44;;;;;;;24.10;12.85;;;;;;;26.61;41.85;101142.38;21084533;28;20078;-75
2023/07/12 23:00:48;;;;;;;26.55;12.00;;;;;;;26.62;41.67;101152.47;21083421;28;20040;-75
2023/07/12 23:10:49;;;;;;;33.60;12.55;;;;;;;26.61;43.56;101133.97;21082570;28;20032;-77
2023/07/12 23:21:08;;;;;;;49.42;13.55;;;;;;;26.86;44.65;101153.03;21026541;28;20098;-75
2023/07/12 23:31:13;;;;;;;46.75;13.88;;;;;;;27.01;44.71;101165.06;21011374;28;20036;-76
2023/07/12 23:41:15;;;;;;;148.27;21.00;;;;;;;27.16;45.08;101166.69;21077822;28;20032;-76
2023/07/12 23:51:16;;;;;;;107.25;17.35;;;;;;;27.25;44.84;101182.47;21076083;28;20036;-75
